Time;durP1;ratioP1;P1;durP2;ratioP2;P2;SDS_P1;SDS_P2;PMS_P1;PMS_P2;Temp;Humidity;BMP_temperature;BMP_pressure;BME280_temperature;BME280_humidity;BME280_pressure;Samples;Min_cycle;Max_cycle;Signal;HPM_P1;HPM_P2
2022/04/29 00:00:16;;;;;;;1.63;1.57;;;9.00;98.00;;;;;;4916442;29;20461;-72
2022/04/29 00:02:45;;;;;;;1.37;1.33;;;9.10;98.00;;;;;;4916488;29;20873;-70
2022/04/29 00:05:13;;;;;;;2.30;1.67;;;9.00;98.00;;;;;;4916690;29;20556;-71
2022/04/29 00:07:40;;;;;;;1.70;1.43;;;8.90;98.00;;;;;;4916769;29;20475;-70
2022/04/29 00:10:09;;;;;;;1.60;1.53;;;8.80;98.00;;;;;;4916396;29;20957;-70
2022/04/29 00:12:37;;;;;;;2.00;1.40;;;8.80;98.00;;;;;;4916777;29;20471;-70
2022/04/29 00:15:07;;;;;;;10.50;2.20;;;8.80;98.00;;;;;;4916237;29;20468;-70
2022/04/29 00:17:34;;;;;;;1.60;1.20;;;8.80;98.00;;;;;;4916260;29;20466;-70
2022/04/29 00:20:01;;;;;;;1.70;1.60;;;8.80;98.00;;;;;;4916453;29;20460;-70
2022/04/29 00:22:28;;;;;;;6.03;2.43;;;8.80;98.00;;;;;;4915948;29;20481;-70
2022/04/29 00:24:56;;;;;;;1.53;1.43;;;8.90;98.00;;;;;;4915835;29;21074;-71
2022/04/29 00:27:24;;;;;;;4.80;1.90;;;9.10;98.00;;;;;;4914711;29;20452;-70
2022/04/29 00:29:51;;;;;;;1.93;1.33;;;8.90;98.00;;;;;;4916022;29;20788;-70
2022/04/29 00:32:19;;;;;;;1.50;1.30;;;8.90;98.00;;;;;;4916059;29;20464;-70
2022/04/29 00:34:46;;;;;;;2.50;1.73;;;8.90;98.00;;;;;;4915607;29;20518;-70
2022/04/29 00:37:13;;;;;;;1.63;1.30;;;8.80;98.00;;;;;;4915962;29;21042;-70
2022/04/29 00:39:40;;;;;;;1.73;1.60;;;8.80;98.00;;;;;;4915759;29;20468;-70
2022/04/29 00:42:12;;;;;;;1.80;1.00;;;8.60;98.00;;;;;;4915652;29;20464;-70
2022/04/29 00:44:40;;;;;;;1.30;1.30;;;8.40;98.00;;;;;;4914801;29;20493;-70
2022/04/29 00:47:09;;;;;;;1.43;1.20;;;8.30;98.00;;;;;;4915598;29;20561;-71
2022/04/29 00:49:38;;;;;;;2.20;1.57;;;8.30;98.00;;;;;;4915751;29;20471;-70
2022/04/29 00:52:08;;;;;;;1.57;1.47;;;8.10;98.00;;;;;;4915544;29;20463;-71
2022/04/29 00:54:38;;;;;;;2.37;1.60;;;8.20;98.00;;;;;;4915641;29;20962;-70
2022/04/29 00:57:08;;;;;;;1.40;1.30;;;8.10;98.00;;;;;;4915744;29;20836;-70
2022/04/29 00:59:40;;;;;;;1.40;1.30;;;8.10;98.00;;;;;;4915756;29;20999;-70
2022/04/29 01:02:10;;;;;;;1.20;1.20;;;7.90;98.00;;;;;;4914246;29;20463;-70
2022/04/29 01:04:49;;;;;;;1.27;1.13;;;7.90;98.00;;;;;;4915679;29;20513;-71
2022/04/29 01:07:16;;;;;;;1.30;1.20;;;8.20;98.00;;;;;;4914172;29;20463;-70
2022/04/29 01:09:44;;;;;;;1.73;1.40;;;8.20;98.00;;;;;;4915630;29;20970;-70
2022/04/29 01:12:12;;;;;;;1.30;1.20;;;8.10;98.00;;;;;;4914315;29;20475;-70
2022/04/29 01:14:39;;;;;;;1.83;1.43;;;8.00;98.00;;;;;;4915360;29;20486;-71
2022/04/29 01:17:06;;;;;;;1.70;1.33;;;7.90;98.00;;;;;;4915221;29;20457;-71
2022/04/29 01:19:33;;;;;;;1.73;1.50;;;7.80;98.00;;;;;;4915182;29;20776;-69
2022/04/29 01:22:02;;;;;;;1.37;1.20;;;7.80;98.00;;;;;;4914904;29;20470;-70
2022/04/29 01:24:29;;;;;;;1.27;1.27;;;8.00;98.00;;;;;;4915104;29;20491;-71
2022/04/29 01:26:57;;;;;;;1.20;1.03;;;7.90;98.00;;;;;;4915302;29;20475;-70
2022/04/29 01:29:25;;;;;;;1.30;1.10;;;7.80;98.00;;;;;;4915215;29;20467;-71
2022/04/29 01:31:53;;;;;;;1.93;1.50;;;7.70;98.00;;;;;;4915293;29;20463;-71
2022/04/29 01:34:20;;;;;;;1.50;1.40;;;7.70;98.00;;;;;;4915288;29;20507;-70
2022/04/29 01:36:48;;;;;;;2.53;1.80;;;7.60;98.00;;;;;;4915033;29;20822;-70
2022/04/29 01:39:16;;;;;;;1.40;1.37;;;7.50;98.00;;;;;;4915126;29;20474;-69
2022/04/29 01:41:44;;;;;;;2.33;1.83;;;7.40;98.00;;;;;;4915158;29;20458;-71
2022/04/29 01:44:16;;;;;;;2.03;1.70;;;7.40;98.00;;;;;;4914788;29;21016;-70
2022/04/29 01:46:44;;;;;;;1.40;1.20;;;7.40;98.00;;;;;;4914972;29;20464;-71
2022/04/29 01:49:11;;;;;;;1.47;1.40;;;7.40;98.00;;;;;;4914977;29;20505;-72
2022/04/29 01:51:38;;;;;;;1.20;1.10;;;7.50;98.00;;;;;;4913898;29;20462;-71
2022/04/29 01:54:10;;;;;;;2.63;1.73;;;7.60;98.00;;;;;;4914959;29;20466;-70
2022/04/29 01:56:39;;;;;;;1.50;1.30;;;7.70;98.00;;;;;;4918075;29;20467;-70
2022/04/29 01:59:06;;;;;;;2.33;1.63;;;7.60;98.00;;;;;;4918689;29;21078;-70
2022/04/29 02:01:33;;;;;;;3.93;1.60;;;7.50;98.00;;;;;;4918769;29;20462;-71
2022/04/29 02:04:01;;;;;;;1.20;1.10;;;7.50;98.00;;;;;;4918603;29;20575;-70
2022/04/29 02:06:28;;;;;;;3.93;1.60;;;7.20;98.00;;;;;;4918526;29;20462;-70
2022/04/29 02:08:55;;;;;;;1.20;1.10;;;7.20;98.00;;;;;;4918274;29;20461;-70
2022/04/29 02:11:23;;;;;;;1.30;1.30;;;7.30;98.00;;;;;;4918454;29;20466;-70
2022/04/29 02:13:52;;;;;;;1.40;1.20;;;7.20;98.00;;;;;;4918383;29;20471;-70
2022/04/29 02:16:19;;;;;;;1.97;1.30;;;7.10;98.00;;;;;;4916793;29;20951;-72
2022/04/29 02:18:46;;;;;;;2.40;1.43;;;7.10;98.00;;;;;;4918371;29;20464;-70
2022/04/29 02:21:13;;;;;;;1.37;1.37;;;7.10;98.00;;;;;;4918383;29;20823;-71
2022/04/29 02:23:40;;;;;;;1.40;1.30;;;7.10;98.00;;;;;;4918170;29;20891;-70
2022/04/29 02:26:07;;;;;;;1.27;1.23;;;7.10;98.00;;;;;;4918217;29;20814;-70
2022/04/29 02:28:40;;;;;;;1.37;1.23;;;7.10;98.00;;;;;;4918300;29;20471;-70
2022/04/29 02:31:09;;;;;;;1.97;1.43;;;7.00;98.00;;;;;;4918130;29;20826;-70
2022/04/29 02:33:36;;;;;;;2.37;1.50;;;6.90;98.00;;;;;;4918114;29;20460;-70
2022/04/29 02:36:05;;;;;;;1.30;1.10;;;6.90;98.00;;;;;;4917881;29;20468;-71
2022/04/29 02:38:32;;;;;;;1.30;1.30;;;6.90;98.00;;;;;;4917944;29;20464;-69
2022/04/29 02:40:59;;;;;;;1.77;1.20;;;6.90;98.00;;;;;;4917989;29;20512;-69
2022/04/29 02:43:26;;;;;;;1.30;1.23;;;6.80;98.00;;;;;;4917889;29;20464;-70
2022/04/29 02:45:55;;;;;;;1.90;1.47;;;6.80;98.00;;;;;;4917953;29;20458;-70
2022/04/29 02:48:23;;;;;;;1.70;1.20;;;6.90;98.00;;;;;;4918101;29;20460;-70
2022/04/29 02:50:50;;;;;;;1.87;1.67;;;6.80;98.00;;;;;;4917927;29;20465;-70
2022/04/29 02:53:17;;;;;;;2.43;1.60;;;7.00;98.00;;;;;;4917990;29;20459;-69
2022/04/29 02:55:44;;;;;;;2.30;1.50;;;7.00;98.00;;;;;;4917745;29;20780;-70
2022/04/29 02:58:13;;;;;;;2.80;2.07;;;6.90;98.00;;;;;;4917625;29;20468;-70
2022/04/29 03:00:40;;;;;;;1.57;1.33;;;6.70;98.00;;;;;;4917771;29;20465;-70
2022/04/29 03:03:08;;;;;;;2.00;1.67;;;6.80;98.00;;;;;;4917626;29;20505;-69
2022/04/29 03:05:36;;;;;;;1.40;1.20;;;6.70;98.00;;;;;;4917621;29;20494;-69
2022/04/29 03:08:04;;;;;;;1.40;1.10;;;6.80;98.00;;;;;;4916573;29;20457;-70
2022/04/29 03:10:31;;;;;;;1.20;1.10;;;6.70;98.00;;;;;;4917549;29;20462;-69
2022/04/29 03:12:58;;;;;;;3.30;1.67;;;6.60;98.00;;;;;;4917454;29;20843;-71
2022/04/29 03:15:26;;;;;;;1.97;1.40;;;6.60;98.00;;;;;;4917656;29;20514;-70
2022/04/29 03:20:41;;;;;;;1.20;1.10;;;6.50;98.00;;;;;;4917485;29;20453;-69
2022/04/29 03:23:09;;;;;;;1.70;1.40;;;6.60;98.00;;;;;;4916729;29;20471;-70
2022/04/29 03:25:40;;;;;;;1.60;1.40;;;6.80;98.00;;;;;;4917139;29;20488;-69
2022/04/29 03:28:07;;;;;;;1.20;1.10;;;6.70;98.00;;;;;;4915874;29;20826;-69
2022/04/29 03:30:36;;;;;;;1.30;1.30;;;6.70;98.00;;;;;;4917181;29;20476;-69
2022/04/29 03:33:06;;;;;;;1.67;1.20;;;6.50;98.00;;;;;;4917421;29;20466;-69
2022/04/29 03:35:40;;;;;;;3.97;1.60;;;6.50;98.00;;;;;;4917112;29;20456;-69
2022/04/29 03:38:07;;;;;;;1.40;1.20;;;6.40;98.00;;;;;;4916940;29;20499;-68
2022/04/29 03:40:35;;;;;;;1.30;1.10;;;6.40;98.00;;;;;;4917078;29;20898;-69
2022/04/29 03:43:02;;;;;;;1.60;1.37;;;6.40;98.00;;;;;;4916935;29;20456;-69
2022/04/29 03:45:29;;;;;;;2.27;1.50;;;6.30;98.00;;;;;;4916779;29;20488;-70
2022/04/29 03:47:56;;;;;;;1.40;1.30;;;6.40;98.00;;;;;;4916997;29;20462;-69
2022/04/29 03:50:27;;;;;;;1.30;1.20;;;6.40;98.00;;;;;;4917324;29;20468;-69
2022/04/29 03:52:57;;;;;;;1.43;1.20;;;6.60;98.00;;;;;;4917152;29;20519;-70
2022/04/29 03:55:26;;;;;;;1.20;1.10;;;6.80;98.00;;;;;;4916423;29;21178;-69
2022/04/29 03:57:54;;;;;;;2.17;1.53;;;6.90;98.00;;;;;;4916821;29;20480;-70
2022/04/29 04:00:22;;;;;;;1.83;1.33;;;6.70;98.00;;;;;;4917642;29;20463;-69
2022/04/29 04:02:49;;;;;;;1.40;1.20;;;6.40;98.00;;;;;;4917617;29;20458;-69
2022/04/29 04:05:17;;;;;;;1.40;1.33;;;6.30;98.00;;;;;;4916542;29;20591;-70
2022/04/29 04:07:45;;;;;;;2.50;1.77;;;6.20;98.00;;;;;;4917618;29;20464;-69
2022/04/29 04:10:14;;;;;;;1.20;1.20;;;6.20;98.00;;;;;;4916958;29;20991;-69
2022/04/29 04:12:43;;;;;;;1.50;1.50;;;6.20;98.00;;;;;;4916093;29;20528;-69
2022/04/29 04:15:11;;;;;;;1.60;1.50;;;6.20;98.00;;;;;;4916349;29;20476;-69
2022/04/29 04:17:38;;;;;;;1.20;1.10;;;6.40;98.00;;;;;;4916378;29;20897;-69
2022/04/29 04:20:07;;;;;;;2.37;1.57;;;6.40;98.00;;;;;;4916336;29;20473;-69
2022/04/29 04:22:35;;;;;;;2.90;1.30;;;6.50;98.00;;;;;;4916237;29;20549;-70
2022/04/29 04:25:04;;;;;;;1.70;1.60;;;6.50;98.00;;;;;;4916444;29;21005;-69
2022/04/29 04:27:32;;;;;;;1.30;1.20;;;6.60;98.00;;;;;;4916185;29;20496;-71
2022/04/29 04:30:00;;;;;;;1.40;1.30;;;6.60;98.00;;;;;;4916108;29;20473;-69
2022/04/29 04:32:28;;;;;;;1.77;1.30;;;6.50;98.00;;;;;;4916298;29;20803;-69
2022/04/29 04:34:57;;;;;;;1.20;1.03;;;6.40;98.00;;;;;;4915972;29;20468;-69
2022/04/29 04:37:25;;;;;;;1.77;1.50;;;6.30;98.00;;;;;;4915824;29;20803;-70
2022/04/29 04:39:53;;;;;;;1.57;1.50;;;6.40;98.00;;;;;;4915910;29;20452;-69
2022/04/29 04:42:21;;;;;;;1.20;1.10;;;6.60;98.00;;;;;;4916019;29;20471;-69
2022/04/29 04:44:51;;;;;;;1.77;1.33;;;6.70;98.00;;;;;;4915869;29;20495;-69
2022/04/29 04:47:18;;;;;;;5.23;1.87;;;6.80;98.00;;;;;;4915689;29;20836;-70
2022/04/29 04:49:46;;;;;;;1.20;1.13;;;6.90;98.00;;;;;;4915784;29;20465;-70
2022/04/29 04:52:13;;;;;;;3.53;2.47;;;6.90;98.00;;;;;;4915805;29;20519;-70
2022/04/29 04:54:40;;;;;;;1.57;1.20;;;6.80;98.00;;;;;;4915865;29;20517;-70
2022/04/29 04:57:07;;;;;;;2.93;1.50;;;6.80;98.00;;;;;;4915864;29;20464;-69
2022/04/29 04:59:35;;;;;;;1.87;1.60;;;6.70;98.00;;;;;;4915883;29;20872;-69
2022/04/29 05:02:03;;;;;;;2.03;1.53;;;6.60;98.00;;;;;;4915570;29;20474;-69
2022/04/29 05:04:30;;;;;;;1.30;1.10;;;6.60;98.00;;;;;;4915360;29;20490;-69
2022/04/29 05:06:57;;;;;;;1.70;1.53;;;6.80;98.00;;;;;;4915617;29;20466;-70
2022/04/29 05:09:24;;;;;;;1.53;1.30;;;6.80;98.00;;;;;;4915599;29;20456;-71
2022/04/29 05:11:52;;;;;;;2.53;1.63;;;6.80;98.00;;;;;;4915515;29;20455;-69
2022/04/29 05:14:19;;;;;;;1.77;1.37;;;6.90;98.00;;;;;;4915637;29;20463;-70
2022/04/29 05:16:46;;;;;;;2.00;1.50;;;7.10;98.00;;;;;;4915515;29;20456;-69
2022/04/29 05:19:14;;;;;;;1.77;1.57;;;7.10;98.00;;;;;;4915183;29;20527;-70
2022/04/29 05:21:41;;;;;;;1.70;1.60;;;7.30;98.00;;;;;;4914878;29;20871;-71
2022/04/29 05:24:09;;;;;;;1.93;1.53;;;7.30;98.00;;;;;;4915190;29;20530;-69
2022/04/29 05:26:36;;;;;;;2.17;1.50;;;7.40;98.00;;;;;;4915120;29;20492;-69
2022/04/29 05:29:03;;;;;;;6.67;2.27;;;7.60;98.00;;;;;;4915167;29;20471;-71
2022/04/29 05:31:32;;;;;;;2.07;1.70;;;7.90;98.00;;;;;;4914612;29;20457;-70
2022/04/29 05:34:00;;;;;;;1.70;1.53;;;8.00;98.00;;;;;;4915053;29;20524;-69
2022/04/29 05:36:29;;;;;;;1.83;1.50;;;8.00;98.00;;;;;;4915136;29;20472;-70
2022/04/29 05:44:25;;;;;;;1.50;1.47;;;8.40;98.00;;;;;;4915000;29;20461;-71
2022/04/29 05:46:52;;;;;;;1.93;1.87;;;8.40;98.00;;;;;;4914936;29;20469;-70
2022/04/29 05:49:19;;;;;;;1.20;1.10;;;8.40;98.00;;;;;;4913880;29;20457;-70
2022/04/29 05:51:48;;;;;;;2.03;1.63;;;8.40;98.00;;;;;;4915042;29;20462;-70
2022/04/29 05:54:15;;;;;;;1.63;1.53;;;8.40;98.00;;;;;;4915239;29;20462;-70
2022/04/29 05:56:42;;;;;;;1.63;1.50;;;8.50;98.00;;;;;;4914966;29;20462;-70
2022/04/29 05:59:09;;;;;;;3.30;1.23;;;8.40;98.00;;;;;;4914861;29;20465;-70
2022/04/29 06:01:36;;;;;;;2.07;1.50;;;8.30;98.00;;;;;;4914753;29;20525;-70
2022/04/29 06:04:04;;;;;;;1.40;1.30;;;8.40;98.00;;;;;;4914807;29;20466;-71
2022/04/29 06:06:31;;;;;;;3.20;2.17;;;8.50;98.00;;;;;;4914777;29;20718;-72
2022/04/29 06:09:00;;;;;;;3.00;1.67;;;8.50;98.00;;;;;;4914798;29;20470;-70
2022/04/29 06:11:27;;;;;;;1.53;1.47;;;8.60;98.00;;;;;;4913974;29;20533;-70
2022/04/29 06:13:54;;;;;;;2.07;1.30;;;8.70;98.00;;;;;;4913751;29;20984;-71
2022/04/29 06:16:22;;;;;;;2.30;2.10;;;8.80;98.00;;;;;;4914710;29;20935;-70
2022/04/29 06:18:49;;;;;;;1.43;1.37;;;8.80;98.00;;;;;;4914654;29;20739;-71
2022/04/29 06:21:18;;;;;;;1.87;1.80;;;8.90;98.00;;;;;;4914740;29;20471;-69
2022/04/29 06:23:45;;;;;;;1.90;1.70;;;9.00;98.00;;;;;;4914599;29;20740;-71
2022/04/29 06:26:13;;;;;;;1.90;1.50;;;8.90;98.00;;;;;;4914551;29;20493;-71
2022/04/29 06:28:40;;;;;;;1.20;1.00;;;9.00;98.00;;;;;;4914591;29;20448;-72
2022/04/29 06:31:09;;;;;;;1.33;1.23;;;9.10;98.00;;;;;;4914629;29;20459;-71
2022/04/29 06:33:38;;;;;;;1.97;1.53;;;9.20;98.00;;;;;;4914512;29;20472;-70
2022/04/29 06:36:06;;;;;;;1.30;1.20;;;9.30;98.00;;;;;;4914505;29;20518;-70
2022/04/29 06:38:34;;;;;;;1.53;1.47;;;9.40;98.00;;;;;;4914360;29;20553;-71
2022/04/29 06:41:01;;;;;;;2.67;1.73;;;9.50;98.00;;;;;;4913316;29;20487;-70
2022/04/29 06:43:30;;;;;;;3.07;1.87;;;9.60;98.00;;;;;;4917573;29;20462;-70
2022/04/29 06:45:57;;;;;;;1.40;1.40;;;9.60;98.00;;;;;;4918768;29;20501;-70
2022/04/29 06:48:25;;;;;;;3.33;2.83;;;9.80;98.00;;;;;;4918666;29;20476;-71
2022/04/29 06:50:52;;;;;;;4.03;1.93;;;9.90;98.00;;;;;;4917405;29;20519;-70
2022/04/29 06:53:20;;;;;;;2.17;1.83;;;9.90;98.00;;;;;;4919006;29;20552;-72
2022/04/29 06:55:48;;;;;;;1.83;1.63;;;10.00;98.00;;;;;;4918732;29;20511;-72
2022/04/29 06:58:15;;;;;;;1.70;1.57;;;10.20;98.00;;;;;;4918483;29;20509;-70
2022/04/29 07:00:44;;;;;;;2.17;1.77;;;10.20;98.00;;;;;;4918269;29;20460;-70
2022/04/29 07:03:11;;;;;;;3.87;2.40;;;10.40;98.00;;;;;;4918273;29;21043;-72
2022/04/29 07:05:39;;;;;;;2.50;2.00;;;10.50;98.00;;;;;;4918013;29;20491;-70
2022/04/29 07:08:07;;;;;;;1.60;1.53;;;10.70;98.00;;;;;;4918114;29;20476;-70
2022/04/29 07:10:35;;;;;;;3.40;2.03;;;10.70;98.00;;;;;;4918231;29;20468;-71
2022/04/29 07:13:03;;;;;;;2.80;2.50;;;10.90;98.00;;;;;;4918532;29;20582;-70
2022/04/29 07:15:30;;;;;;;1.70;1.63;;;11.00;98.00;;;;;;4918180;29;20838;-70
2022/04/29 07:17:59;;;;;;;5.30;2.30;;;11.10;98.00;;;;;;4917800;29;20506;-71
2022/04/29 07:20:26;;;;;;;3.87;2.70;;;11.30;98.00;;;;;;4916880;29;20481;-69
2022/04/29 07:22:54;;;;;;;2.00;1.57;;;11.40;98.00;;;;;;4916332;29;20546;-70
2022/04/29 07:25:21;;;;;;;2.37;1.70;;;11.50;98.00;;;;;;4917477;29;20494;-71
2022/04/29 07:27:49;;;;;;;3.00;1.97;;;11.70;98.00;;;;;;4918077;29;20456;-71
2022/04/29 07:30:16;;;;;;;1.87;1.40;;;11.80;98.00;;;;;;4918007;29;20466;-71
2022/04/29 07:32:43;;;;;;;2.10;1.80;;;11.90;98.00;;;;;;4917988;29;20459;-71
2022/04/29 07:43:26;;;;;;;1.80;1.70;;;12.60;98.00;;;;;;4905920;29;20883;-71
2022/04/29 07:45:53;;;;;;;2.90;2.03;;;12.60;98.00;;;;;;4912957;29;20879;-71
2022/04/29 07:48:22;;;;;;;2.07;1.93;;;12.50;98.00;;;;;;4902863;29;20467;-70
2022/04/29 07:50:52;;;;;;;2.53;1.93;;;12.50;98.00;;;;;;4894960;29;20508;-73
2022/04/29 07:53:20;;;;;;;1.47;1.47;;;12.70;98.00;;;;;;4895612;29;20905;-71
2022/04/29 07:55:47;;;;;;;3.87;2.73;;;12.80;98.00;;;;;;4900897;29;20471;-72
2022/04/29 07:58:14;;;;;;;2.03;1.73;;;13.00;98.00;;;;;;4914255;29;20832;-72
2022/04/29 08:00:43;;;;;;;4.30;1.93;;;13.10;98.00;;;;;;4914367;29;20476;-73
2022/04/29 08:03:10;;;;;;;4.07;1.67;;;13.30;98.00;;;;;;4914324;29;20471;-71
2022/04/29 08:05:37;;;;;;;2.40;1.93;;;13.50;98.00;;;;;;4899230;29;20503;-71
2022/04/29 08:08:06;;;;;;;3.47;2.43;;;13.60;98.00;;;;;;4896434;29;20459;-71
2022/04/29 08:10:34;;;;;;;2.30;2.00;;;13.80;98.00;;;;;;4896061;29;20462;-71
2022/04/29 08:13:03;;;;;;;3.73;2.13;;;14.00;98.00;;;;;;4908809;29;20468;-71
2022/04/29 08:15:31;;;;;;;3.37;1.87;;;14.20;98.00;;;;;;4899587;29;20518;-71
2022/04/29 08:17:59;;;;;;;2.00;1.70;;;14.40;98.00;;;;;;4907299;29;20511;-71
2022/04/29 08:20:26;;;;;;;2.63;2.13;;;14.60;98.00;;;;;;4904623;29;20516;-71
2022/04/29 08:22:53;;;;;;;3.53;1.70;;;14.70;98.00;;;;;;4904249;29;20479;-71
2022/04/29 08:25:22;;;;;;;4.27;2.83;;;14.60;98.00;;;;;;4904437;29;20466;-72
2022/04/29 08:27:51;;;;;;;3.50;2.23;;;14.80;98.00;;;;;;4909961;29;20978;-72
2022/04/29 08:30:18;;;;;;;2.13;1.90;;;15.00;98.00;;;;;;4898387;29;20483;-72
2022/04/29 08:32:47;;;;;;;2.37;2.07;;;15.10;98.00;;;;;;4898539;29;20535;-71
2022/04/29 08:35:15;;;;;;;2.70;2.27;;;15.20;98.00;;;;;;4901456;29;20471;-71
2022/04/29 08:37:44;;;;;;;2.40;1.77;;;15.00;98.00;;;;;;4908073;29;20599;-71
2022/04/29 08:40:12;;;;;;;2.50;1.90;;;15.00;98.00;;;;;;4904999;29;20469;-71
2022/04/29 08:42:41;;;;;;;4.00;2.83;;;15.00;98.00;;;;;;4908454;29;20471;-71
2022/04/29 08:45:10;;;;;;;4.63;2.77;;;15.00;98.00;;;;;;4909503;29;20465;-71
2022/04/29 08:47:39;;;;;;;2.13;1.70;;;15.10;97.50;;;;;;4896001;29;20496;-71
2022/04/29 08:50:08;;;;;;;2.30;1.87;;;15.20;96.70;;;;;;4901636;29;20467;-71
2022/04/29 08:52:35;;;;;;;3.07;2.30;;;15.20;98.00;;;;;;4898403;29;20461;-71
2022/04/29 09:00:39;;;;;;;2.70;2.10;;;15.40;98.00;;;;;;4895397;29;20455;-71
2022/04/29 09:03:07;;;;;;;3.00;2.33;;;15.60;98.00;;;;;;4903375;29;20550;-73
2022/04/29 09:05:35;;;;;;;4.30;2.97;;;15.90;98.00;;;;;;4902992;29;20466;-72
2022/04/29 09:08:04;;;;;;;3.70;2.30;;;16.00;98.00;;;;;;4912460;29;20636;-73
2022/04/29 09:10:34;;;;;;;5.33;2.83;;;16.20;95.10;;;;;;4894709;29;20467;-73
2022/04/29 09:13:14;;;;;;;5.60;2.93;;;16.40;96.00;;;;;;4894516;29;20468;-72
2022/04/29 09:15:48;;;;;;;2.43;1.97;;;16.50;95.10;;;;;;4909579;29;20471;-72
2022/04/29 09:18:15;;;;;;;2.57;2.47;;;16.70;92.50;;;;;;4910259;29;20562;-72
2022/04/29 09:20:43;;;;;;;3.93;2.00;;;17.00;92.70;;;;;;4904596;29;20622;-71
2022/04/29 09:23:12;;;;;;;2.50;1.80;;;17.40;90.30;;;;;;4895838;29;20495;-72
2022/04/29 09:25:40;;;;;;;3.13;2.10;;;17.80;89.10;;;;;;4894209;29;20583;-72
2022/04/29 09:28:07;;;;;;;3.47;1.83;;;18.10;86.40;;;;;;4896207;29;20492;-72
2022/04/29 09:30:38;;;;;;;3.27;1.90;;;18.40;85.20;;;;;;4902462;29;20536;-72
2022/04/29 09:33:07;;;;;;;2.63;1.83;;;18.60;84.40;;;;;;4893480;29;20468;-72
2022/04/29 09:35:39;;;;;;;1.63;1.40;;;18.80;85.20;;;;;;4894036;29;20469;-72
2022/04/29 09:41:00;;;;;;;2.17;1.90;;;19.20;77.30;;;;;;4904038;29;20823;-72
2022/04/29 09:43:34;;;;;;;3.00;2.13;;;19.40;77.70;;;;;;4897884;29;20467;-71
2022/04/29 09:46:17;;;;;;;1.63;1.63;;;19.50;74.30;;;;;;4902884;29;20491;-72
2022/04/29 09:49:02;;;;;;;2.17;1.70;;;19.50;74.60;;;;;;4903920;29;21151;-72
2022/04/29 09:51:47;;;;;;;2.30;1.97;;;19.60;76.50;;;;;;4900918;29;20475;-72
2022/04/29 09:54:20;;;;;;;3.50;1.80;;;19.80;74.20;;;;;;4912684;29;21329;-71
2022/04/29 09:57:03;;;;;;;3.57;2.17;;;19.90;75.40;;;;;;4912129;29;20460;-72
2022/04/29 09:59:33;;;;;;;3.60;2.53;;;19.90;71.90;;;;;;4906196;29;20467;-72
2022/04/29 10:02:04;;;;;;;3.30;2.17;;;20.10;73.60;;;;;;4915597;29;20440;-72
2022/04/29 10:04:34;;;;;;;2.00;1.70;;;20.30;72.20;;;;;;4915588;29;20468;-71
2022/04/29 10:07:03;;;;;;;2.80;2.03;;;20.40;71.50;;;;;;4914776;29;20499;-72
2022/04/29 10:09:33;;;;;;;3.73;1.90;;;20.60;73.70;;;;;;4915151;29;20899;-72
2022/04/29 10:12:02;;;;;;;2.87;1.90;;;20.80;75.00;;;;;;4914543;29;20575;-72
2022/04/29 10:14:32;;;;;;;4.20;2.17;;;20.90;71.80;;;;;;4914775;29;20512;-72
2022/04/29 10:22:42;;;;;;;2.00;1.70;;;20.90;70.10;;;;;;4898921;29;20459;-71
2022/04/29 10:25:11;;;;;;;3.87;2.50;;;21.00;71.90;;;;;;4899251;29;20543;-72
2022/04/29 10:27:40;;;;;;;2.73;2.00;;;21.00;71.50;;;;;;4898823;29;20496;-71
2022/04/29 10:30:08;;;;;;;2.57;2.20;;;20.90;73.00;;;;;;4898931;29;20465;-72
2022/04/29 10:32:59;;;;;;;2.13;2.00;;;21.00;73.60;;;;;;4899120;29;20971;-71
2022/04/29 10:38:25;;;;;;;2.60;1.90;;;20.80;69.20;;;;;;5113122;27;1318809;-72
2022/04/29 10:41:12;;;;;;;2.63;1.83;;;20.90;73.10;;;;;;5129266;28;20300;-72
2022/04/29 10:43:40;;;;;;;3.70;2.63;;;20.80;71.60;;;;;;5129337;28;20455;-71
2022/04/29 10:46:23;;;;;;;2.40;1.97;;;20.90;70.80;;;;;;5129143;28;20807;-72
2022/04/29 10:48:52;;;;;;;5.80;2.70;;;20.90;70.00;;;;;;5128674;28;20454;-72
2022/04/29 10:51:21;;;;;;;2.97;2.23;;;21.00;71.60;;;;;;5129177;28;20536;-72
2022/04/29 10:53:52;;;;;;;2.67;2.00;;;21.20;69.90;;;;;;5129113;28;20497;-72
2022/04/29 10:56:39;;;;;;;2.73;2.10;;;21.50;69.50;;;;;;5129008;28;21018;-72
2022/04/29 10:59:14;;;;;;;5.30;2.40;;;21.80;67.40;;;;;;5129213;28;20447;-72
2022/04/29 11:01:42;;;;;;;2.33;1.80;;;22.00;69.10;;;;;;5110908;28;20457;-72
2022/04/29 11:04:45;;;;;;;3.80;2.33;;;22.30;70.60;;;;;;5128991;28;20454;-72
2022/04/29 11:07:44;;;;;;;2.90;1.97;;;22.50;67.40;;;;;;5129129;28;20903;-72
2022/04/29 11:10:15;;;;;;;2.40;2.10;;;22.70;66.00;;;;;;5046245;28;20466;-72
2022/04/29 11:12:54;;;;;;;2.53;1.93;;;22.80;67.30;;;;;;5113536;28;20515;-72
2022/04/29 11:15:23;;;;;;;2.50;1.97;;;22.70;64.60;;;;;;5112684;28;20909;-72
2022/04/29 11:17:50;;;;;;;3.73;2.07;;;22.60;66.40;;;;;;5129552;28;21003;-72
2022/04/29 11:20:19;;;;;;;2.17;1.73;;;22.70;64.20;;;;;;5129266;28;20947;-72
2022/04/29 11:25:54;;;;;;;2.90;2.30;;;23.10;64.90;;;;;;5128802;28;20442;-72
2022/04/29 11:28:21;;;;;;;2.73;1.97;;;23.50;64.80;;;;;;5128924;28;20518;-72
2022/04/29 11:30:50;;;;;;;2.73;2.20;;;23.90;64.10;;;;;;5128782;28;20450;-72
2022/04/29 11:33:23;;;;;;;3.90;2.57;;;24.00;62.30;;;;;;5128548;28;20763;-72
2022/04/29 11:35:57;;;;;;;2.87;2.13;;;24.10;62.20;;;;;;5128855;28;20901;-72
2022/04/29 11:38:25;;;;;;;3.77;2.57;;;24.40;63.60;;;;;;5128240;28;21181;-72
2022/04/29 11:40:54;;;;;;;3.00;2.00;;;24.60;63.80;;;;;;5128548;28;20489;-72
2022/04/29 11:43:24;;;;;;;3.47;2.10;;;24.90;63.80;;;;;;5128285;28;20454;-72
2022/04/29 11:46:01;;;;;;;4.87;2.50;;;25.10;61.90;;;;;;5110016;28;20727;-72
2022/04/29 11:48:28;;;;;;;3.57;2.13;;;25.30;63.40;;;;;;5121648;28;20964;-72
2022/04/29 11:50:58;;;;;;;3.27;2.30;;;25.40;62.80;;;;;;5114192;28;20462;-72
2022/04/29 11:53:25;;;;;;;2.90;2.20;;;25.20;63.00;;;;;;5114385;28;20935;-72
2022/04/29 11:55:54;;;;;;;3.00;2.10;;;25.30;63.00;;;;;;5114234;28;21025;-72
2022/04/29 11:58:24;;;;;;;1.87;1.70;;;25.30;61.50;;;;;;5114131;28;20479;-73
2022/04/29 12:00:52;;;;;;;4.40;3.13;;;25.30;64.50;;;;;;5114349;28;21012;-72
2022/04/29 12:03:20;;;;;;;2.87;2.23;;;25.30;63.00;;;;;;5114098;28;20455;-72
2022/04/29 12:05:47;;;;;;;3.50;2.43;;;25.40;63.80;;;;;;5096070;28;20451;-73
2022/04/29 12:08:15;;;;;;;3.70;2.20;;;25.10;61.50;;;;;;5114293;28;20451;-72
2022/04/29 12:10:44;;;;;;;5.07;2.50;;;24.70;62.80;;;;;;5114683;28;20461;-73
2022/04/29 12:13:13;;;;;;;3.40;2.33;;;24.40;63.40;;;;;;5114924;28;20491;-72
2022/04/29 12:15:42;;;;;;;2.77;2.30;;;24.00;61.20;;;;;;5114464;28;20858;-73
2022/04/29 12:18:12;;;;;;;4.97;2.20;;;23.60;63.70;;;;;;5114147;28;20544;-71
2022/04/29 12:20:49;;;;;;;4.77;2.50;;;23.40;63.00;;;;;;5113478;28;20764;-73
2022/04/29 12:23:19;;;;;;;2.80;2.10;;;23.20;64.70;;;;;;5113869;28;20498;-71
2022/04/29 12:25:48;;;;;;;2.97;2.20;;;22.80;65.90;;;;;;5114137;28;20494;-72
2022/04/29 12:28:20;;;;;;;3.80;2.00;;;22.60;67.70;;;;;;5113831;28;20459;-75
2022/04/29 12:36:51;;;;;;;5.23;2.60;;;22.20;67.10;;;;;;5113607;28;20443;-73
2022/04/29 12:39:22;;;;;;;4.73;2.40;;;22.10;69.10;;;;;;5113327;28;20467;-72
2022/04/29 12:41:58;;;;;;;3.57;2.30;;;22.10;67.60;;;;;;5113457;28;20453;-72
2022/04/29 12:47:25;;;;;;;3.13;2.03;;;22.10;67.70;;;;;;5113579;28;20446;-73
2022/04/29 12:49:53;;;;;;;4.70;2.20;;;22.20;68.30;;;;;;5113583;28;20454;-73
2022/04/29 12:52:20;;;;;;;2.90;2.03;;;22.30;68.80;;;;;;5113262;28;20451;-73
2022/04/29 12:54:47;;;;;;;3.83;2.43;;;22.30;69.10;;;;;;5093682;28;20505;-72
2022/04/29 12:57:14;;;;;;;2.80;2.33;;;22.30;65.00;;;;;;5074532;28;20476;-72
2022/04/29 12:59:45;;;;;;;3.47;2.53;;;22.40;66.80;;;;;;5091501;28;20451;-73
2022/04/29 13:02:12;;;;;;;2.50;2.20;;;22.50;66.80;;;;;;5092573;28;20590;-72
2022/04/29 13:04:39;;;;;;;2.83;2.30;;;22.70;66.80;;;;;;5092589;28;20497;-71
2022/04/29 13:07:06;;;;;;;4.20;2.40;;;22.80;68.90;;;;;;5092354;28;20452;-72
2022/04/29 13:09:33;;;;;;;2.37;1.90;;;22.90;67.10;;;;;;5092694;28;20460;-71
2022/04/29 13:12:00;;;;;;;3.90;2.80;;;23.00;66.70;;;;;;5092798;28;20487;-73
2022/04/29 13:14:28;;;;;;;2.93;2.00;;;23.00;65.90;;;;;;5101336;28;21859;-74
2022/04/29 13:16:57;;;;;;;2.87;2.20;;;23.10;67.30;;;;;;5081321;28;20892;-73
2022/04/29 13:19:24;;;;;;;3.80;2.33;;;23.20;67.70;;;;;;5102929;28;20887;-73
2022/04/29 13:21:52;;;;;;;3.13;2.23;;;23.50;67.60;;;;;;5075257;28;20470;-72
2022/04/29 13:24:19;;;;;;;3.40;1.97;;;23.90;65.80;;;;;;5099313;28;20475;-73
2022/04/29 13:26:47;;;;;;;3.33;2.40;;;24.40;64.70;;;;;;5093652;28;20459;-72
2022/04/29 13:29:16;;;;;;;3.10;2.20;;;24.90;64.60;;;;;;5094114;28;20455;-72
2022/04/29 13:31:44;;;;;;;6.77;3.60;;;25.20;63.60;;;;;;5098631;28;20545;-72
2022/04/29 13:34:12;;;;;;;3.57;2.60;;;25.50;64.30;;;;;;5105770;28;20454;-73
2022/04/29 13:36:41;;;;;;;3.27;2.20;;;25.90;63.70;;;;;;5112319;28;20475;-72
2022/04/29 13:39:08;;;;;;;3.00;2.33;;;26.00;65.70;;;;;;5112217;28;20498;-72
2022/04/29 13:41:35;;;;;;;4.60;2.70;;;26.00;62.80;;;;;;5112364;28;20498;-72
2022/04/29 13:44:02;;;;;;;4.37;2.80;;;25.80;63.70;;;;;;5112158;28;20451;-72
2022/04/29 13:46:30;;;;;;;2.70;2.27;;;25.70;61.80;;;;;;5112166;28;20451;-73